Time;durP1;ratioP1;P1;durP2;ratioP2;P2;SDS_P1;SDS_P2;PMS_P1;PMS_P2;Temp;Humidity;BMP_temperature;BMP_pressure;BME280_temperature;BME280_humidity;BME280_pressure;Samples;Min_cycle;Max_cycle;Signal;HPM_P1;HPM_P2
2022/12/29 00:01:59;;;;;;;1999.90;999.90;;;9.70;99.90;;;;;;6376220;22;20007;-75
2022/12/29 00:04:25;;;;;;;1999.90;999.90;;;9.70;99.90;;;;;;6376006;22;20389;-76
2022/12/29 00:06:52;;;;;;;1999.90;999.90;;;9.80;99.90;;;;;;6374268;22;20018;-76
2022/12/29 00:09:18;;;;;;;1999.90;999.90;;;9.80;99.90;;;;;;6347557;22;20013;-76
2022/12/29 00:11:43;;;;;;;1999.90;999.90;;;9.80;99.90;;;;;;6375925;22;20090;-76
2022/12/29 00:16:54;;;;;;;1999.90;999.90;;;9.70;99.90;;;;;;6374888;22;20007;-76
2022/12/29 00:36:22;;;;;;;1999.90;999.90;;;9.90;99.90;;;;;;6374296;22;20033;-76
2022/12/29 00:44:24;;;;;;;1999.90;999.90;;;9.80;99.90;;;;;;6374675;22;20006;-77
2022/12/29 00:46:50;;;;;;;1999.90;999.90;;;9.80;99.90;;;;;;6371586;22;20015;-76
2022/12/29 00:49:30;;;;;;;1999.90;999.90;;;9.90;99.90;;;;;;6376913;22;20311;-76
2022/12/29 00:52:00;;;;;;;1999.90;999.90;;;9.90;99.90;;;;;;6375981;22;20051;-76
2022/12/29 00:54:27;;;;;;;1999.90;999.90;;;9.90;99.90;;;;;;6377701;22;20441;-76
2022/12/29 00:56:53;;;;;;;1999.90;999.90;;;9.90;99.90;;;;;;6375619;22;20338;-76
2022/12/29 00:59:19;;;;;;;1999.90;999.90;;;9.90;99.90;;;;;;6377809;22;19999;-76
2022/12/29 01:01:46;;;;;;;1999.90;999.90;;;10.00;99.90;;;;;;6377628;22;20204;-76
2022/12/29 01:04:12;;;;;;;1999.90;999.90;;;9.90;99.90;;;;;;6349369;22;20003;-76
2022/12/29 01:06:40;;;;;;;1999.90;999.90;;;10.10;99.90;;;;;;6376638;22;20156;-77
2022/12/29 01:11:51;;;;;;;1999.90;999.90;;;9.90;99.90;;;;;;6376664;22;20010;-76
2022/12/29 01:14:18;;;;;;;1999.90;999.90;;;9.90;99.90;;;;;;6376068;22;20010;-76
2022/12/29 01:16:43;;;;;;;1999.90;999.90;;;10.10;99.90;;;;;;6348371;22;20010;-76
2022/12/29 01:19:09;;;;;;;1999.90;999.90;;;10.10;99.90;;;;;;6349206;22;20311;-76
2022/12/29 01:21:35;;;;;;;1999.90;999.90;;;10.10;99.90;;;;;;6377526;22;20037;-76
2022/12/29 01:24:01;;;;;;;1999.90;999.90;;;10.10;99.90;;;;;;6377603;22;20010;-76
2022/12/29 01:26:26;;;;;;;1999.90;999.90;;;10.10;99.90;;;;;;6377028;22;20078;-76
2022/12/29 01:28:52;;;;;;;1999.90;999.90;;;10.20;99.90;;;;;;6377367;22;20026;-77
2022/12/29 01:31:17;;;;;;;1999.90;999.90;;;10.30;99.90;;;;;;6377335;22;20002;-76
2022/12/29 01:33:43;;;;;;;1999.90;999.90;;;10.30;99.90;;;;;;6349189;22;20014;-76
2022/12/29 01:36:14;;;;;;;1999.90;999.90;;;10.30;99.90;;;;;;6348688;22;20007;-76
2022/12/29 01:38:41;;;;;;;1999.90;999.90;;;10.30;99.90;;;;;;6377420;22;20007;-76
2022/12/29 01:41:08;;;;;;;1999.90;999.90;;;10.30;99.90;;;;;;6377352;22;20007;-76
2022/12/29 01:43:56;;;;;;;1999.90;999.90;;;10.20;99.90;;;;;;6377555;22;20015;-76
2022/12/29 01:46:30;;;;;;;1999.90;999.90;;;10.20;99.90;;;;;;6376710;22;20034;-76
2022/12/29 01:49:10;;;;;;;1999.90;999.90;;;10.10;99.90;;;;;;6377222;22;20007;-76
2022/12/29 01:51:40;;;;;;;1999.90;999.90;;;9.90;99.90;;;;;;6347623;22;20024;-76
2022/12/29 01:54:11;;;;;;;1999.90;999.90;;;9.80;99.90;;;;;;6377663;22;20025;-76
2022/12/29 01:56:36;;;;;;;1999.90;999.90;;;9.80;99.90;;;;;;6376975;22;20508;-76
2022/12/29 01:59:08;;;;;;;1999.90;999.90;;;9.80;99.90;;;;;;6376378;22;20007;-76
2022/12/29 02:01:34;;;;;;;1999.90;999.90;;;9.80;99.90;;;;;;6377715;22;20453;-76
2022/12/29 02:04:00;;;;;;;1999.90;999.90;;;9.90;99.90;;;;;;6377817;22;20006;-76
2022/12/29 02:06:38;;;;;;;1999.90;999.90;;;9.90;99.90;;;;;;6377056;22;20013;-76
2022/12/29 02:09:03;;;;;;;1999.90;999.90;;;9.90;99.90;;;;;;6348452;22;20014;-76
2022/12/29 02:11:30;;;;;;;1999.90;999.90;;;10.00;99.90;;;;;;6377966;22;20022;-76
2022/12/29 02:13:56;;;;;;;1999.90;999.90;;;10.00;99.90;;;;;;6377660;22;20404;-76
2022/12/29 02:17:07;;;;;;;1999.90;999.90;;;10.10;99.90;;;;;;6376798;22;20426;-76
2022/12/29 02:19:58;;;;;;;1999.90;999.90;;;10.10;99.90;;;;;;6349363;22;20030;-76
2022/12/29 02:23:08;;;;;;;1999.90;999.90;;;10.20;99.90;;;;;;6377613;22;20413;-76
2022/12/29 02:26:05;;;;;;;1999.90;999.90;;;10.10;99.90;;;;;;6349322;22;20479;-76
2022/12/29 02:28:58;;;;;;;1999.90;999.90;;;10.20;99.90;;;;;;6376978;22;20010;-76
2022/12/29 02:31:35;;;;;;;1999.90;999.90;;;10.30;99.90;;;;;;6377574;22;20424;-76
2022/12/29 02:34:13;;;;;;;1999.90;999.90;;;10.30;99.90;;;;;;6349464;22;20014;-76
2022/12/29 02:37:08;;;;;;;1999.90;999.90;;;10.30;99.90;;;;;;6377380;22;20007;-76
2022/12/29 02:40:04;;;;;;;1999.90;999.90;;;10.30;99.90;;;;;;6377484;22;20007;-77
2022/12/29 02:42:47;;;;;;;1999.90;999.90;;;10.30;99.90;;;;;;6349334;22;19999;-76
2022/12/29 02:45:31;;;;;;;1999.90;999.90;;;10.20;99.90;;;;;;6349210;22;20013;-76
2022/12/29 02:48:16;;;;;;;1999.90;999.90;;;10.20;99.90;;;;;;6377195;22;20090;-76
2022/12/29 02:51:06;;;;;;;1999.90;999.90;;;10.10;99.90;;;;;;6377436;22;20006;-76
2022/12/29 02:56:18;;;;;;;1999.90;999.90;;;10.10;99.90;;;;;;6377140;22;20430;-76
2022/12/29 02:58:44;;;;;;;1999.90;999.90;;;10.10;99.90;;;;;;6377325;22;20007;-76
2022/12/29 03:02:16;;;;;;;1999.90;999.90;;;10.10;99.90;;;;;;6376432;22;20434;-76
2022/12/29 03:04:46;;;;;;;1999.90;999.90;;;10.10;99.90;;;;;;6377042;22;20011;-76
2022/12/29 03:07:36;;;;;;;1999.90;999.90;;;10.20;99.90;;;;;;6348542;22;20019;-76
2022/12/29 03:10:12;;;;;;;1999.90;999.90;;;10.20;99.90;;;;;;6349249;22;19995;-76
2022/12/29 03:16:02;;;;;;;1999.90;999.90;;;10.20;99.90;;;;;;6377271;22;20002;-76
2022/12/29 03:18:45;;;;;;;1999.90;999.90;;;10.30;99.90;;;;;;6349418;22;20014;-76
2022/12/29 03:22:26;;;;;;;1999.90;999.90;;;10.30;99.90;;;;;;6377402;22;20471;-76
2022/12/29 03:24:18;;;;;;;1999.90;999.90;;;10.40;99.90;;;;;;6377131;22;20413;-76
2022/12/29 03:26:45;;;;;;;1999.90;999.90;;;10.50;99.90;;;;;;6348198;22;20430;-76
2022/12/29 03:29:12;;;;;;;1999.90;999.90;;;10.60;99.90;;;;;;6348822;22;20060;-76
2022/12/29 03:31:39;;;;;;;1999.90;999.90;;;10.70;99.90;;;;;;6377178;22;20472;-76
2022/12/29 03:34:06;;;;;;;1999.90;999.90;;;10.70;99.90;;;;;;6377101;22;20011;-76
2022/12/29 03:36:40;;;;;;;1999.90;999.90;;;10.70;99.90;;;;;;6348438;22;20406;-76
2022/12/29 03:39:11;;;;;;;1999.90;999.90;;;10.70;99.90;;;;;;6377158;22;20369;-76
2022/12/29 03:41:39;;;;;;;1999.90;999.90;;;10.80;99.90;;;;;;6348934;22;20007;-76
2022/12/29 03:44:09;;;;;;;1999.90;999.90;;;10.80;99.90;;;;;;6348582;22;20092;-76
2022/12/29 03:46:34;;;;;;;1999.90;999.90;;;10.70;99.90;;;;;;6348380;22;20429;-76
2022/12/29 03:49:00;;;;;;;1999.90;999.90;;;10.70;99.90;;;;;;6349037;22;20011;-76
2022/12/29 03:51:26;;;;;;;1999.90;999.90;;;10.60;99.90;;;;;;6349042;22;20373;-76
2022/12/29 03:53:51;;;;;;;1999.90;999.90;;;10.70;99.90;;;;;;6376964;22;20060;-76
2022/12/29 03:56:17;;;;;;;1999.90;999.90;;;10.70;99.90;;;;;;6348309;22;20094;-76
2022/12/29 03:58:42;;;;;;;1999.90;999.90;;;10.70;99.90;;;;;;6376717;22;20034;-76
2022/12/29 04:01:08;;;;;;;1999.90;999.90;;;10.80;99.90;;;;;;6348796;22;20087;-76
2022/12/29 04:03:33;;;;;;;1999.90;999.90;;;10.80;99.90;;;;;;6376697;22;20018;-76
2022/12/29 04:05:59;;;;;;;1999.90;999.90;;;10.90;99.90;;;;;;6348044;22;20010;-76
2022/12/29 04:08:25;;;;;;;1999.90;999.90;;;10.90;99.90;;;;;;6348586;22;20011;-76
2022/12/29 04:10:50;;;;;;;1999.90;999.90;;;10.90;99.90;;;;;;6376890;22;20007;-76
2022/12/29 04:13:16;;;;;;;1999.90;999.90;;;10.90;99.90;;;;;;6377983;22;20011;-76
2022/12/29 04:15:43;;;;;;;1999.90;999.90;;;11.00;99.90;;;;;;6349904;22;20456;-76
2022/12/29 04:18:08;;;;;;;1999.90;999.90;;;11.00;99.90;;;;;;6350260;22;20518;-76
2022/12/29 04:23:18;;;;;;;1999.90;999.90;;;11.10;99.90;;;;;;6378171;22;20447;-76
2022/12/29 04:25:47;;;;;;;1999.90;999.90;;;11.00;99.90;;;;;;6349773;22;20007;-76
2022/12/29 04:28:14;;;;;;;1999.90;999.90;;;11.10;99.90;;;;;;6377986;22;20038;-76
2022/12/29 04:30:39;;;;;;;1999.90;999.90;;;11.00;99.90;;;;;;6355692;22;20003;-76
2022/12/29 04:33:05;;;;;;;1999.90;999.90;;;11.00;99.90;;;;;;6377955;22;20507;-76
2022/12/29 04:35:31;;;;;;;1999.90;999.90;;;11.00;99.90;;;;;;6377676;22;20048;-76
2022/12/29 04:37:56;;;;;;;1999.90;999.90;;;11.00;99.90;;;;;;6377746;22;20057;-76
2022/12/29 04:40:23;;;;;;;1999.90;999.90;;;11.10;99.90;;;;;;6377615;22;19999;-76
2022/12/29 04:42:48;;;;;;;1999.90;999.90;;;11.10;99.90;;;;;;6378126;22;20015;-76
2022/12/29 04:45:14;;;;;;;1999.90;999.90;;;11.10;99.90;;;;;;6377832;22;20412;-76
2022/12/29 04:47:40;;;;;;;1999.90;999.90;;;11.20;99.90;;;;;;6377644;22;20014;-76
2022/12/29 04:50:06;;;;;;;1999.90;999.90;;;11.20;99.90;;;;;;6349932;22;20362;-76
2022/12/29 04:52:31;;;;;;;1999.90;999.90;;;11.30;99.90;;;;;;6377928;22;20453;-76
2022/12/29 04:54:57;;;;;;;1999.90;999.90;;;11.30;99.90;;;;;;6349718;22;20003;-76
2022/12/29 04:57:22;;;;;;;1999.90;999.90;;;11.30;99.90;;;;;;6377285;22;20022;-76
2022/12/29 04:59:48;;;;;;;1999.90;999.90;;;11.30;99.90;;;;;;6377767;22;20003;-76
2022/12/29 05:02:13;;;;;;;1999.90;999.90;;;11.50;99.90;;;;;;6377935;22;20011;-76
2022/12/29 05:04:39;;;;;;;1999.90;999.90;;;11.50;99.90;;;;;;6378073;22;20014;-76
2022/12/29 05:07:04;;;;;;;1999.90;999.90;;;11.60;99.90;;;;;;6377125;22;20019;-76
2022/12/29 05:09:30;;;;;;;1999.90;999.90;;;11.60;99.90;;;;;;6349791;22;20439;-76
2022/12/29 05:11:55;;;;;;;1999.90;999.90;;;11.50;99.90;;;;;;6349728;22;20035;-76
2022/12/29 05:14:21;;;;;;;1999.90;999.90;;;11.60;99.90;;;;;;6377899;22;20408;-76
2022/12/29 05:16:47;;;;;;;1999.90;999.90;;;11.60;99.90;;;;;;6377327;22;20014;-76
2022/12/29 05:19:12;;;;;;;1999.90;999.90;;;11.60;99.90;;;;;;6349577;22;20014;-76
2022/12/29 05:21:38;;;;;;;1999.90;999.90;;;11.60;99.90;;;;;;6377712;22;20014;-76
2022/12/29 05:24:04;;;;;;;1999.90;999.90;;;11.50;99.90;;;;;;6378033;22;20017;-75
2022/12/29 05:26:29;;;;;;;1999.90;999.90;;;11.60;99.90;;;;;;6377103;22;20006;-75
2022/12/29 05:28:55;;;;;;;1999.90;999.90;;;11.60;99.90;;;;;;6349474;22;20085;-75
2022/12/29 05:31:20;;;;;;;1999.90;999.90;;;11.70;99.90;;;;;;6377767;22;20011;-75
2022/12/29 05:33:46;;;;;;;1999.90;999.90;;;11.70;99.90;;;;;;6377759;22;20497;-75
2022/12/29 05:36:12;;;;;;;1999.90;999.90;;;11.70;99.90;;;;;;6377054;22;20070;-74
2022/12/29 05:38:37;;;;;;;1999.90;999.90;;;11.80;99.90;;;;;;6349701;22;20015;-75
2022/12/29 05:41:03;;;;;;;1999.90;999.90;;;11.80;99.90;;;;;;6377473;22;20136;-75
2022/12/29 05:43:29;;;;;;;1999.90;999.90;;;11.80;99.90;;;;;;6377726;22;19999;-75
2022/12/29 05:45:55;;;;;;;1999.90;999.90;;;11.80;99.90;;;;;;6349021;22;20002;-75
2022/12/29 05:48:21;;;;;;;1999.90;999.90;;;11.80;99.90;;;;;;6377749;22;20027;-75
2022/12/29 05:50:48;;;;;;;1999.90;999.90;;;11.90;99.90;;;;;;6377687;22;20003;-75
2022/12/29 05:53:13;;;;;;;1999.90;999.90;;;11.90;99.90;;;;;;6377740;22;20007;-75
2022/12/29 05:55:39;;;;;;;1999.90;999.90;;;11.90;99.90;;;;;;6377419;22;20422;-75
2022/12/29 05:58:04;;;;;;;1999.90;999.90;;;11.80;99.90;;;;;;6377087;22;20010;-75
2022/12/29 06:00:30;;;;;;;1999.90;999.90;;;11.80;99.90;;;;;;6349546;22;20002;-75
2022/12/29 06:02:55;;;;;;;1999.90;999.90;;;11.70;99.90;;;;;;6349510;22;20010;-75
2022/12/29 06:05:21;;;;;;;1999.90;999.90;;;11.80;99.90;;;;;;6376876;22;20361;-75
2022/12/29 06:07:47;;;;;;;1999.90;999.90;;;11.70;99.90;;;;;;6377235;22;20011;-75
2022/12/29 06:10:12;;;;;;;1999.90;999.90;;;11.70;99.90;;;;;;6349496;22;20010;-75
2022/12/29 06:12:38;;;;;;;1999.90;999.90;;;11.70;99.90;;;;;;6377557;22;20010;-75
2022/12/29 06:15:04;;;;;;;1999.90;999.90;;;11.70;99.90;;;;;;6349184;22;20095;-75
2022/12/29 06:17:29;;;;;;;1999.90;999.90;;;11.60;99.90;;;;;;6348640;22;20014;-75
2022/12/29 06:19:55;;;;;;;1999.90;999.90;;;11.60;99.90;;;;;;6377630;22;20346;-75
2022/12/29 06:22:20;;;;;;;1999.90;999.90;;;11.60;99.90;;;;;;6377207;22;20443;-74
2022/12/29 06:24:46;;;;;;;1999.90;999.90;;;11.60;99.90;;;;;;6377456;22;20328;-75
2022/12/29 06:27:11;;;;;;;1999.90;999.90;;;11.50;99.90;;;;;;6349053;22;20346;-75
2022/12/29 06:29:39;;;;;;;1999.90;999.90;;;11.50;99.90;;;;;;6377507;22;20465;-75
2022/12/29 06:32:05;;;;;;;1999.90;999.90;;;11.60;99.90;;;;;;6377432;22;20003;-75
2022/12/29 06:34:30;;;;;;;1999.90;999.90;;;11.50;99.90;;;;;;6377146;22;20007;-75
2022/12/29 06:36:56;;;;;;;1999.90;999.90;;;11.50;99.90;;;;;;6376969;22;20312;-75
2022/12/29 06:39:21;;;;;;;1999.90;999.90;;;11.50;99.90;;;;;;6377338;22;20434;-74
2022/12/29 06:41:47;;;;;;;1999.90;999.90;;;11.40;99.90;;;;;;6349360;22;20018;-75
2022/12/29 06:44:12;;;;;;;1999.90;999.90;;;11.40;99.90;;;;;;6377635;22;19999;-74
2022/12/29 06:46:38;;;;;;;1999.90;999.90;;;11.30;99.90;;;;;;6376877;22;20388;-75
2022/12/29 06:49:04;;;;;;;1999.90;999.90;;;11.30;99.90;;;;;;6349125;22;20041;-75
2022/12/29 06:51:29;;;;;;;1999.90;999.90;;;11.20;99.90;;;;;;6377302;22;20316;-75
2022/12/29 06:53:55;;;;;;;1999.90;999.90;;;11.10;99.90;;;;;;6377163;22;20007;-75
2022/12/29 06:56:20;;;;;;;1999.90;999.90;;;11.10;99.90;;;;;;6376446;22;19999;-75
2022/12/29 06:58:46;;;;;;;1999.90;999.90;;;11.10;99.90;;;;;;6377317;22;20014;-75
2022/12/29 07:01:11;;;;;;;1999.90;999.90;;;11.30;99.90;;;;;;6377288;22;20113;-75
2022/12/29 07:03:37;;;;;;;1999.90;999.90;;;11.30;99.90;;;;;;6377325;22;20409;-75
2022/12/29 07:06:03;;;;;;;1999.90;999.90;;;11.40;99.90;;;;;;6376428;22;20007;-75
2022/12/29 07:08:28;;;;;;;1999.90;999.90;;;11.40;99.90;;;;;;6377183;22;20015;-74
2022/12/29 07:10:54;;;;;;;1999.90;999.90;;;11.50;99.90;;;;;;6377346;22;20003;-75
2022/12/29 07:13:19;;;;;;;1999.90;999.90;;;11.50;99.90;;;;;;6378080;22;20014;-75
2022/12/29 07:15:45;;;;;;;1999.90;999.90;;;11.60;99.90;;;;;;6377105;22;20355;-75
2022/12/29 07:18:10;;;;;;;1999.90;999.90;;;11.60;99.90;;;;;;6376861;22;20335;-75
2022/12/29 07:20:36;;;;;;;1999.90;999.90;;;11.70;99.90;;;;;;6377412;22;20005;-75
2022/12/29 07:23:02;;;;;;;1999.90;999.90;;;11.70;99.90;;;;;;6377097;22;20379;-75
2022/12/29 07:25:29;;;;;;;1999.90;999.90;;;11.80;99.90;;;;;;6376961;22;20556;-75
2022/12/29 07:27:54;;;;;;;1999.90;999.90;;;11.80;99.90;;;;;;6376893;22;20080;-75
2022/12/29 07:30:20;;;;;;;1999.90;999.90;;;11.80;99.90;;;;;;6378035;22;20009;-75
2022/12/29 07:32:46;;;;;;;1999.90;999.90;;;11.80;99.90;;;;;;6349349;22;20082;-75
2022/12/29 07:35:11;;;;;;;1999.90;999.90;;;11.70;99.90;;;;;;6348861;22;20084;-75
2022/12/29 07:37:37;;;;;;;1999.90;999.90;;;11.80;99.90;;;;;;6376706;22;20434;-75
2022/12/29 07:40:03;;;;;;;1999.90;999.90;;;11.80;99.90;;;;;;6348916;22;20008;-75
2022/12/29 07:42:29;;;;;;;1999.90;999.90;;;11.90;99.90;;;;;;6377101;22;20003;-75
2022/12/29 07:44:54;;;;;;;1999.90;999.90;;;11.90;99.90;;;;;;6348864;22;20081;-74
2022/12/29 07:47:20;;;;;;;1999.90;999.90;;;12.00;99.90;;;;;;6376935;22;20011;-75
2022/12/29 07:49:45;;;;;;;1999.90;999.90;;;12.00;99.90;;;;;;6377867;22;20003;-75
2022/12/29 07:52:12;;;;;;;1999.90;999.90;;;12.00;99.90;;;;;;6378345;22;20323;-75
2022/12/29 07:54:37;;;;;;;1999.90;999.90;;;12.00;99.90;;;;;;6350037;22;20081;-75
2022/12/29 07:57:04;;;;;;;1999.90;999.90;;;12.00;99.90;;;;;;6378001;22;20568;-76
2022/12/29 07:59:30;;;;;;;1999.90;999.90;;;12.10;99.90;;;;;;6378618;22;19999;-79
2022/12/29 08:01:55;;;;;;;1999.90;999.90;;;12.00;99.90;;;;;;6378674;22;20003;-77
2022/12/29 08:04:21;;;;;;;1999.90;999.90;;;12.10;99.90;;;;;;6378525;22;20010;-75
2022/12/29 08:06:47;;;;;;;1999.90;999.90;;;12.10;99.90;;;;;;6377404;22;20010;-77
2022/12/29 08:09:12;;;;;;;1999.90;999.90;;;12.20;99.90;;;;;;6378411;22;20008;-76
2022/12/29 08:11:38;;;;;;;1999.90;999.90;;;12.20;99.90;;;;;;6378207;22;20014;-75
2022/12/29 08:14:04;;;;;;;1999.90;999.90;;;12.30;99.90;;;;;;6350278;22;20014;-78
2022/12/29 08:16:29;;;;;;;1999.90;999.90;;;12.30;99.90;;;;;;6377846;22;20458;-76
2022/12/29 08:18:56;;;;;;;1999.90;999.90;;;12.30;99.90;;;;;;6378239;22;20445;-75
2022/12/29 08:21:21;;;;;;;1999.90;999.90;;;12.30;99.90;;;;;;6350061;22;20007;-76
2022/12/29 08:23:47;;;;;;;1999.90;999.90;;;12.30;99.90;;;;;;6378319;22;20010;-75
2022/12/29 08:26:13;;;;;;;1999.90;999.90;;;12.30;99.90;;;;;;6376024;22;20035;-75
2022/12/29 08:28:38;;;;;;;1999.90;999.90;;;12.20;99.90;;;;;;6349565;22;20073;-76
2022/12/29 08:31:04;;;;;;;1999.90;999.90;;;12.20;99.90;;;;;;6377907;22;20049;-76
2022/12/29 08:33:30;;;;;;;1999.90;999.90;;;12.20;99.90;;;;;;6377997;22;20007;-75
2022/12/29 08:36:04;;;;;;;1999.90;999.90;;;12.20;99.90;;;;;;6377895;22;20018;-76
2022/12/29 08:38:29;;;;;;;1999.90;999.90;;;12.30;99.90;;;;;;6378278;22;20072;-76
2022/12/29 08:40:56;;;;;;;1999.90;999.90;;;12.30;99.90;;;;;;6377999;22;20448;-77
2022/12/29 08:43:22;;;;;;;1999.90;999.90;;;12.20;99.90;;;;;;6377663;22;20010;-76
2022/12/29 08:45:48;;;;;;;1999.90;999.90;;;12.20;99.90;;;;;;6377142;22;20003;-78
2022/12/29 08:48:13;;;;;;;1999.90;999.90;;;12.20;99.90;;;;;;6379402;22;20041;-77
2022/12/29 08:50:39;;;;;;;1999.90;999.90;;;12.20;99.90;;;;;;6350300;22;19999;-77
2022/12/29 08:53:04;;;;;;;1999.90;999.90;;;12.30;99.90;;;;;;6378731;22;20061;-76
2022/12/29 08:55:30;;;;;;;1999.90;999.90;;;12.30;99.90;;;;;;6378132;22;19999;-76
2022/12/29 08:57:55;;;;;;;1999.90;999.90;;;12.40;99.90;;;;;;6376742;22;20157;-76
2022/12/29 09:00:21;;;;;;;1999.90;999.90;;;12.50;99.90;;;;;;6376226;22;20003;-76
2022/12/29 09:02:47;;;;;;;1999.90;999.90;;;12.60;99.90;;;;;;6349646;22;20425;-76
2022/12/29 09:05:12;;;;;;;1999.90;999.90;;;12.60;99.90;;;;;;6377515;22;20146;-77
2022/12/29 09:07:38;;;;;;;1999.90;999.90;;;12.60;99.90;;;;;;6377635;22;20015;-77
2022/12/29 09:10:04;;;;;;;1999.90;999.90;;;12.70;99.90;;;;;;6378039;22;20060;-76
2022/12/29 09:12:30;;;;;;;1999.90;999.90;;;12.70;99.90;;;;;;6377881;22;20339;-76
2022/12/29 09:14:56;;;;;;;1999.90;999.90;;;12.80;99.90;;;;;;6377963;22;20007;-76
2022/12/29 09:20:06;;;;;;;1999.90;999.90;;;12.80;99.90;;;;;;6378148;22;20023;-76
2022/12/29 09:22:31;;;;;;;1999.90;999.90;;;12.90;99.90;;;;;;6377950;22;20076;-76
2022/12/29 09:24:57;;;;;;;1999.90;999.90;;;12.90;99.90;;;;;;6324099;22;20389;-76
2022/12/29 09:27:23;;;;;;;1999.90;999.90;;;12.90;99.90;;;;;;6350525;22;20014;-77
2022/12/29 09:29:48;;;;;;;1999.90;999.90;;;12.90;99.90;;;;;;6350247;22;20442;-77
2022/12/29 09:32:14;;;;;;;1999.90;999.90;;;12.90;99.90;;;;;;6350470;22;20442;-77
2022/12/29 09:34:39;;;;;;;1999.90;999.90;;;12.90;99.90;;;;;;6350477;22;20042;-77
2022/12/29 09:37:05;;;;;;;1999.90;999.90;;;12.90;99.90;;;;;;6350398;22;20377;-77
2022/12/29 09:39:30;;;;;;;1999.90;999.90;;;12.90;99.90;;;;;;6379218;22;20078;-78
2022/12/29 09:42:12;;;;;;;1999.90;999.90;;;12.90;99.90;;;;;;6378489;22;19999;-78
2022/12/29 09:45:18;;;;;;;1999.90;999.90;;;12.90;99.90;;;;;;6378454;22;20042;-77
2022/12/29 09:47:45;;;;;;;1999.90;999.90;;;12.90;99.90;;;;;;6374952;22;20011;-78
2022/12/29 09:50:37;;;;;;;1999.90;999.90;;;12.80;99.90;;;;;;6350968;22;20003;-78
2022/12/29 09:53:25;;;;;;;1999.90;999.90;;;12.80;99.90;;;;;;6373023;22;20445;-78
2022/12/29 09:55:55;;;;;;;1999.90;999.90;;;12.70;99.90;;;;;;6379483;22;20739;-79
2022/12/29 09:59:04;;;;;;;1999.90;999.90;;;12.80;99.90;;;;;;6351662;22;20010;-78
2022/12/29 10:01:48;;;;;;;1999.90;999.90;;;12.70;99.90;;;;;;6349761;22;20009;-76
2022/12/29 10:04:14;;;;;;;1999.90;999.90;;;12.70;99.90;;;;;;6377920;22;20068;-77
2022/12/29 10:06:50;;;;;;;1999.90;999.90;;;12.80;99.90;;;;;;6377649;22;20011;-77
2022/12/29 10:09:31;;;;;;;1999.90;999.90;;;12.80;99.90;;;;;;6377474;22;20354;-76
2022/12/29 10:12:30;;;;;;;1999.90;999.90;;;12.80;99.90;;;;;;6378704;22;20010;-77
2022/12/29 10:15:02;;;;;;;1999.90;999.90;;;12.80;99.90;;;;;;6350298;22;20006;-77
2022/12/29 10:17:46;;;;;;;1999.90;999.90;;;12.80;99.90;;;;;;6349278;22;20006;-77
2022/12/29 10:20:33;;;;;;;1999.90;999.90;;;12.80;99.90;;;;;;6379327;22;20056;-78
2022/12/29 10:23:22;;;;;;;1999.90;999.90;;;12.90;99.90;;;;;;6379129;22;19999;-78
2022/12/29 10:25:48;;;;;;;1999.90;999.90;;;13.10;99.90;;;;;;6351222;22;20064;-78
2022/12/29 10:28:21;;;;;;;1999.90;999.90;;;13.30;99.90;;;;;;6378356;22;20090;-76
2022/12/29 10:30:48;;;;;;;1999.90;999.90;;;13.30;99.90;;;;;;6350920;22;20059;-78
2022/12/29 10:33:23;;;;;;;1999.90;999.90;;;13.50;99.90;;;;;;6350505;22;20416;-79
2022/12/29 10:35:50;;;;;;;1999.90;999.90;;;13.60;99.90;;;;;;6351752;22;20422;-79
2022/12/29 10:38:23;;;;;;;1999.90;999.90;;;13.70;99.90;;;;;;6351698;22;20006;-78
2022/12/29 10:40:49;;;;;;;1999.90;999.90;;;13.90;99.90;;;;;;6378681;22;19999;-78
2022/12/29 10:43:37;;;;;;;1999.90;999.90;;;14.00;99.90;;;;;;6352407;22;20003;-77
2022/12/29 10:46:08;;;;;;;1999.90;999.90;;;14.10;99.90;;;;;;6379024;22;20037;-77
2022/12/29 10:48:34;;;;;;;1999.90;999.90;;;14.10;99.90;;;;;;6352473;22;20021;-79
2022/12/29 10:51:01;;;;;;;1999.90;999.90;;;14.10;99.90;;;;;;6378990;22;20438;-77
2022/12/29 10:53:40;;;;;;;1999.90;999.90;;;14.00;99.90;;;;;;6379867;22;20006;-78
2022/12/29 10:56:17;;;;;;;1999.90;999.90;;;14.10;99.90;;;;;;6351168;22;20003;-77
2022/12/29 10:58:46;;;;;;;1999.90;999.90;;;14.20;99.90;;;;;;6351791;22;20022;-78
2022/12/29 11:01:12;;;;;;;1999.90;999.90;;;14.20;99.90;;;;;;6378373;22;20034;-79
2022/12/29 11:04:02;;;;;;;1999.90;999.90;;;14.40;99.90;;;;;;6351031;22;20060;-80
2022/12/29 11:06:29;;;;;;;1999.90;999.90;;;14.50;99.90;;;;;;6378158;22;20042;-80
2022/12/29 11:09:16;;;;;;;1999.90;999.90;;;14.40;99.90;;;;;;6379884;22;20018;-79
2022/12/29 11:11:42;;;;;;;1999.90;999.90;;;14.40;99.90;;;;;;6349247;22;20060;-79
2022/12/29 11:14:12;;;;;;;1999.90;999.90;;;14.20;99.90;;;;;;6379653;22;20030;-82
2022/12/29 11:16:38;;;;;;;1999.90;999.90;;;13.70;99.90;;;;;;6379432;22;20070;-78
2022/12/29 11:19:03;;;;;;;1999.90;999.90;;;13.50;99.90;;;;;;6351346;22;20034;-81
2022/12/29 11:21:33;;;;;;;1999.90;999.90;;;13.20;99.90;;;;;;6378022;22;20086;-77
2022/12/29 11:24:02;;;;;;;1999.90;999.90;;;13.10;99.90;;;;;;6349856;22;20011;-76
2022/12/29 11:26:29;;;;;;;1999.90;999.90;;;13.20;99.90;;;;;;6348464;22;20022;-80
2022/12/29 11:29:13;;;;;;;1999.90;999.90;;;13.00;99.90;;;;;;6349998;22;20019;-78
2022/12/29 11:32:12;;;;;;;1999.90;999.90;;;12.90;99.90;;;;;;6377765;22;20779;-78
2022/12/29 11:34:38;;;;;;;1999.90;999.90;;;12.80;99.90;;;;;;6353154;22;20011;-78
2022/12/29 11:37:06;;;;;;;1999.90;999.90;;;12.70;99.90;;;;;;6377036;22;20085;-78
2022/12/29 11:39:50;;;;;;;1999.90;999.90;;;12.70;99.90;;;;;;6348852;22;20022;-78
2022/12/29 11:42:18;;;;;;;1999.90;999.90;;;12.80;99.90;;;;;;6349351;22;20003;-77
2022/12/29 11:44:46;;;;;;;1999.90;999.90;;;13.00;99.90;;;;;;6377043;22;20034;-79
2022/12/29 11:47:25;;;;;;;1999.90;999.90;;;13.20;99.90;;;;;;6377314;22;20065;-79
2022/12/29 11:49:55;;;;;;;1999.90;999.90;;;13.40;99.90;;;;;;6349631;22;20034;-80
2022/12/29 11:52:24;;;;;;;1999.90;999.90;;;13.50;99.90;;;;;;6377426;22;20086;-78
2022/12/29 11:54:51;;;;;;;1999.90;999.90;;;13.50;99.90;;;;;;6349871;22;20407;-78
2022/12/29 11:57:18;;;;;;;1999.90;999.90;;;13.60;99.90;;;;;;6348083;22;20323;-80
2022/12/29 11:59:48;;;;;;;1999.90;999.90;;;13.70;99.90;;;;;;6378088;22;20003;-80
2022/12/29 12:02:20;;;;;;;1999.90;999.90;;;13.70;99.90;;;;;;6349768;22;20090;-79
2022/12/29 12:04:55;;;;;;;1999.90;999.90;;;13.90;99.90;;;;;;6352758;22;20044;-82
2022/12/29 12:07:28;;;;;;;1999.90;999.90;;;13.90;99.90;;;;;;6382486;22;20017;-81
2022/12/29 12:10:00;;;;;;;1999.90;999.90;;;13.90;99.90;;;;;;6382400;22;20007;-82
2022/12/29 12:12:48;;;;;;;1999.90;999.90;;;14.00;99.90;;;;;;6359076;22;20745;-80
2022/12/29 12:15:22;;;;;;;1999.90;999.90;;;14.00;99.90;;;;;;6357883;22;20007;-82
2022/12/29 12:18:13;;;;;;;1999.90;999.90;;;14.10;99.90;;;;;;6353571;22;20038;-80
2022/12/29 12:21:14;;;;;;;1999.90;999.90;;;14.30;99.90;;;;;;6377713;22;20010;-80
2022/12/29 12:23:44;;;;;;;1999.90;999.90;;;14.30;99.90;;;;;;6350872;22;20077;-81
2022/12/29 12:26:18;;;;;;;1999.90;999.90;;;14.40;99.90;;;;;;6377948;22;20068;-80
2022/12/29 12:28:55;;;;;;;1999.90;999.90;;;14.40;99.90;;;;;;6350246;22;20018;-80
2022/12/29 12:31:47;;;;;;;1999.90;999.90;;;14.30;99.90;;;;;;6350141;22;20421;-80
2022/12/29 12:34:23;;;;;;;1999.90;999.90;;;14.20;99.90;;;;;;6348894;22;20064;-79
2022/12/29 12:37:26;;;;;;;1999.90;999.90;;;14.10;99.90;;;;;;6377899;22;19999;-80
2022/12/29 12:40:17;;;;;;;1999.90;999.90;;;14.10;99.90;;;;;;6375964;22;20393;-80
2022/12/29 12:43:10;;;;;;;1999.90;999.90;;;14.10;99.90;;;;;;6377483;22;20014;-81
2022/12/29 12:45:41;;;;;;;1999.90;999.90;;;14.00;99.90;;;;;;6377533;22;20097;-80
2022/12/29 12:48:32;;;;;;;1999.90;999.90;;;14.00;99.90;;;;;;6349335;22;20022;-80
2022/12/29 12:51:07;;;;;;;1999.90;999.90;;;13.90;99.90;;;;;;6377935;22;20013;-79
2022/12/29 12:53:59;;;;;;;1999.90;999.90;;;14.00;99.90;;;;;;6377907;22;20462;-79
2022/12/29 12:56:59;;;;;;;1999.90;999.90;;;13.90;99.90;;;;;;6377661;22;20022;-79
2022/12/29 12:59:55;;;;;;;1999.90;999.90;;;13.90;99.90;;;;;;6349961;22;20014;-79